Sperry, Missouri
Current Conditions -  °F | °C
As of 12:55 AM on Saturday 25 Oct 2014 (Local Time) from KIRK Reporting Station
Haze Haze  
Wind Chill: 58°   Ceiling: Unl
Heat Index: 58°   Visibility: 5mi
Dew Point: 58°   Wind: 5mph
Humidity: 100%   Direction: 270°W
Pressure: 29.99"   Gusts: NA
Location:  40.149°N, 92.6667°W
Report Text: KIRK 250555Z AUTO 27004KT 5SM BR CLR 14/14 A2999 RMK AO2 SLP156 T01440144 10189 20133 402220128 51002
Loading
Personal Weather Stations






























Interactive Weather Map New forecast layout! Learn more

10-Day Weather Forecast

Advertisements
Track Severe Weather on mobile